createdAt,value
2022-11-28T03:09:28.226Z,15.07
2022-11-28T03:12:26.096Z,18.53
2022-11-28T03:19:04.970Z,14.47
2022-11-28T03:22:26.848Z,15.97
2022-11-28T03:25:30.433Z,17.97
2022-11-28T03:31:21.791Z,18.03
2022-11-28T03:37:29.219Z,18.77
2022-11-28T03:40:26.695Z,19.50
2022-11-28T03:43:21.074Z,21.43
2022-11-28T03:53:06.598Z,19.17
2022-11-28T03:56:06.285Z,20.23
2022-11-28T03:59:01.548Z,18.53
2022-11-28T04:11:20.407Z,18.20
2022-11-28T04:17:35.702Z,19.20
2022-11-28T04:20:34.888Z,19.63
2022-11-28T04:23:24.486Z,21.20
2022-11-28T04:26:21.863Z,20.80
2022-11-28T04:29:17.378Z,21.40
2022-11-28T04:32:09.587Z,17.50
2022-11-28T04:35:06.286Z,19.07
2022-11-28T04:38:01.134Z,18.77
2022-11-28T04:41:01.016Z,18.70
2022-11-28T04:44:08.788Z,22.00
2022-11-28T04:46:59.232Z,20.60
2022-11-28T04:49:48.900Z,21.50
2022-11-28T04:52:45.075Z,20.50
2022-11-28T04:55:39.948Z,17.57
2022-11-28T04:58:36.617Z,20.57
2022-11-28T05:01:40.212Z,20.83
2022-11-28T05:04:38.525Z,20.47
2022-11-28T05:07:46.813Z,20.43
2022-11-28T05:10:58.139Z,19.33
2022-11-28T05:13:52.061Z,19.07
2022-11-28T05:17:19.319Z,20.27
2022-11-28T05:20:11.434Z,18.77
2022-11-28T05:23:08.964Z,19.03
2022-11-28T05:26:05.164Z,19.20
2022-11-28T05:29:01.094Z,19.90
2022-11-28T05:32:00.520Z,20.53
2022-11-28T05:34:53.111Z,20.63
2022-11-28T05:37:58.628Z,20.90
2022-11-28T05:40:51.302Z,20.57
2022-11-28T05:43:41.901Z,18.20
2022-11-28T05:46:33.771Z,19.97
2022-11-28T05:49:30.719Z,20.90
2022-11-28T05:52:21.580Z,21.27
2022-11-28T05:55:14.165Z,18.37
2022-11-28T05:58:05.982Z,21.70
2022-11-28T06:00:54.854Z,19.10
2022-11-28T06:03:45.078Z,19.47
2022-11-28T06:06:36.716Z,19.40
2022-11-28T06:09:26.788Z,22.13
2022-11-28T06:12:16.164Z,21.40
2022-11-28T06:15:06.044Z,20.80
2022-11-28T06:17:55.071Z,20.70
2022-11-28T06:20:44.872Z,20.83
2022-11-28T06:23:41.627Z,22.10
2022-11-28T06:26:31.830Z,17.63
2022-11-28T06:29:21.204Z,21.67
2022-11-28T06:32:11.540Z,22.60
2022-11-28T06:35:00.386Z,20.50
2022-11-28T06:37:54.707Z,24.00
2022-11-28T06:40:45.767Z,22.80
2022-11-28T06:43:38.247Z,18.70
2022-11-28T06:46:29.782Z,22.87
2022-11-28T06:49:19.990Z,22.17
2022-11-28T06:52:08.942Z,21.67
2022-11-28T06:54:57.396Z,23.50
2022-11-28T06:57:47.384Z,22.53
2022-11-28T07:00:38.135Z,22.40
2022-11-28T07:03:29.005Z,21.63
2022-11-28T07:06:21.360Z,24.97
2022-11-28T07:09:11.667Z,24.33
2022-11-28T07:12:02.201Z,21.63
2022-11-28T07:14:52.901Z,23.17
2022-11-28T07:17:41.651Z,22.30
2022-11-28T07:20:30.387Z,24.03
2022-11-28T07:23:19.120Z,21.90
2022-11-28T07:26:08.887Z,23.33
2022-11-28T07:28:58.389Z,20.27
2022-11-28T07:31:49.628Z,23.37
2022-11-28T07:34:41.345Z,22.23
2022-11-28T07:37:31.202Z,22.70
2022-11-28T07:40:22.874Z,19.37
2022-11-28T07:43:13.269Z,23.30
2022-11-28T07:46:05.193Z,21.57
2022-11-28T07:49:00.842Z,23.90
2022-11-28T07:51:51.287Z,24.73
2022-11-28T07:54:41.527Z,20.43
2022-11-28T07:57:30.871Z,17.17
2022-11-28T08:00:22.683Z,19.37
2022-11-28T08:03:11.450Z,22.70
2022-11-28T08:06:05.906Z,22.20
2022-11-28T08:08:55.782Z,22.37
2022-11-28T08:11:44.696Z,21.93
2022-11-28T08:14:33.820Z,23.00
2022-11-28T08:17:22.456Z,23.43
2022-11-28T08:20:22.944Z,18.00
2022-11-28T08:23:16.588Z,23.00
2022-11-28T08:26:13.489Z,21.90
2022-11-28T08:29:06.948Z,21.30
2022-11-28T08:31:59.383Z,20.37
2022-11-28T08:34:51.809Z,24.33
2022-11-28T08:37:42.728Z,19.60
2022-11-28T08:40:36.799Z,20.43
2022-11-28T08:43:25.396Z,16.90
2022-11-28T08:46:16.755Z,16.10
2022-11-28T08:49:08.037Z,22.07
2022-11-28T08:52:00.639Z,19.70
2022-11-28T08:54:52.539Z,21.07
2022-11-28T08:57:45.136Z,20.40
2022-11-28T09:00:34.654Z,22.10
2022-11-28T09:03:26.549Z,22.00
2022-11-28T09:06:18.810Z,21.40
2022-11-28T09:09:10.625Z,19.63
2022-11-28T09:12:00.940Z,22.37
2022-11-28T09:15:02.931Z,20.60
2022-11-28T09:17:56.808Z,21.23
2022-11-28T09:20:49.084Z,22.90
2022-11-28T09:23:53.308Z,18.20
2022-11-28T09:26:45.580Z,20.70
2022-11-28T09:29:38.378Z,22.63
2022-11-28T09:32:32.336Z,21.93
2022-11-28T09:35:27.775Z,20.83
2022-11-28T09:38:19.643Z,18.60
2022-11-28T09:41:36.317Z,21.60
2022-11-28T09:44:28.439Z,20.40
2022-11-28T09:47:25.404Z,20.67
2022-11-28T09:50:23.046Z,24.20
2022-11-28T09:53:22.396Z,23.70
2022-11-28T09:56:18.818Z,19.60
2022-11-28T09:59:22.015Z,14.77
2022-11-28T10:09:57.836Z,20.50
2022-11-28T10:13:17.768Z,20.70
2022-11-28T10:16:20.295Z,20.83
2022-11-28T10:19:57.315Z,19.70
2022-11-28T10:22:45.321Z,22.33
2022-11-28T10:25:42.620Z,21.83
2022-11-28T10:28:45.087Z,20.90
2022-11-28T10:31:54.201Z,21.43
2022-11-28T10:38:00.231Z,19.37
2022-11-28T10:41:03.242Z,23.50
2022-11-28T10:44:05.848Z,18.63
2022-11-28T10:47:06.292Z,18.57
2022-11-28T10:50:30.784Z,23.30
2022-11-28T10:53:55.662Z,20.97
2022-11-28T10:57:01.037Z,20.87
2022-11-28T11:00:08.118Z,23.23
2022-11-28T11:03:13.292Z,20.00
2022-11-28T11:06:13.107Z,20.93
2022-11-28T11:09:24.252Z,21.37
2022-11-28T11:12:22.867Z,20.37
2022-11-28T11:15:39.991Z,22.57
2022-11-28T11:18:31.678Z,19.57
2022-11-28T11:21:37.864Z,20.13
2022-11-28T11:25:11.144Z,22.33
2022-11-28T11:28:26.050Z,20.50
2022-11-28T11:31:46.002Z,20.87
2022-11-28T11:34:57.711Z,21.20
2022-11-28T11:38:37.299Z,21.40
2022-11-28T11:41:44.496Z,20.90
2022-11-28T11:44:42.210Z,20.90
2022-11-28T11:47:58.862Z,21.57
2022-11-28T11:51:07.374Z,20.37
2022-11-28T11:54:26.888Z,19.50
2022-11-28T11:57:37.814Z,19.73
2022-11-28T12:00:50.403Z,20.63
2022-11-28T12:04:13.263Z,18.67
2022-11-28T12:07:27.770Z,19.90
2022-11-28T12:10:30.337Z,19.90
2022-11-28T12:13:44.996Z,17.83
2022-11-28T12:16:54.353Z,18.37
2022-11-28T12:20:07.996Z,18.70
2022-11-28T12:23:17.570Z,17.13
2022-11-28T12:26:34.914Z,19.70
2022-11-28T12:29:49.501Z,18.50
2022-11-28T12:32:52.015Z,19.40
2022-11-28T12:36:03.170Z,18.57
2022-11-28T12:39:16.803Z,19.47
2022-11-28T12:42:45.272Z,17.40
2022-11-28T12:45:55.337Z,20.33
2022-11-28T12:49:09.009Z,16.83
2022-11-28T12:52:35.076Z,20.70
2022-11-28T12:55:37.295Z,18.57
2022-11-28T12:58:36.162Z,20.73
2022-11-28T13:01:56.753Z,19.90
2022-11-28T13:05:36.399Z,20.40
2022-11-28T13:08:49.603Z,22.40
2022-11-28T13:12:01.934Z,20.90
2022-11-28T13:15:00.320Z,18.07
2022-11-28T13:17:59.212Z,19.30
2022-11-28T13:21:26.423Z,19.90
2022-11-28T13:24:48.093Z,19.70
2022-11-28T13:27:47.703Z,21.20
2022-11-28T13:34:02.883Z,20.30
2022-11-28T13:40:33.840Z,23.90
2022-11-28T13:43:38.883Z,22.37
2022-11-28T13:46:43.205Z,23.20
2022-11-28T13:49:37.846Z,23.47
2022-11-28T13:52:39.954Z,20.80
2022-11-28T13:55:58.060Z,21.60
2022-11-28T13:58:58.854Z,23.07
2022-11-28T14:01:55.212Z,22.83
2022-11-28T14:04:48.160Z,22.87
2022-11-28T14:07:39.073Z,22.00
2022-11-28T14:10:58.925Z,23.30
2022-11-28T14:14:09.233Z,22.63
2022-11-28T14:17:17.006Z,23.73
2022-11-28T14:20:21.649Z,23.77
2022-11-28T14:23:25.098Z,27.97
2022-11-28T14:26:30.798Z,31.37
2022-11-28T14:29:30.649Z,29.10
2022-11-28T14:32:35.684Z,31.43
2022-11-28T14:35:57.561Z,30.60
2022-11-28T14:39:03.423Z,32.40
2022-11-28T14:42:59.026Z,31.80
2022-11-28T14:45:49.093Z,32.20
2022-11-28T14:48:42.751Z,32.03
2022-11-28T14:52:38.965Z,32.00
2022-11-28T14:55:27.552Z,31.80
2022-11-28T14:58:23.164Z,31.77
2022-11-28T15:01:16.713Z,31.83
2022-11-28T15:04:36.364Z,33.47
2022-11-28T15:07:36.925Z,30.83
2022-11-28T15:10:56.183Z,35.43
2022-11-28T15:14:12.691Z,32.97
2022-11-28T15:17:16.625Z,33.13
2022-11-28T15:20:29.155Z,29.07
2022-11-28T15:23:27.698Z,34.20
2022-11-28T15:26:26.342Z,32.60
2022-11-28T15:29:24.521Z,35.30
2022-11-28T15:32:17.923Z,32.87
2022-11-28T15:35:23.144Z,32.00
2022-11-28T15:38:19.450Z,31.93
2022-11-28T15:41:16.219Z,33.87
2022-11-28T15:44:17.678Z,30.00
2022-11-28T15:47:21.220Z,29.43
2022-11-28T15:50:21.638Z,33.90
2022-11-28T15:53:20.025Z,34.30
2022-11-28T15:56:12.249Z,31.97
2022-11-28T15:59:01.251Z,31.40
2022-11-28T16:01:59.111Z,31.30
2022-11-28T16:04:57.438Z,32.17
2022-11-28T16:07:48.481Z,33.03
2022-11-28T16:10:40.558Z,33.77
2022-11-28T16:13:33.196Z,32.23
2022-11-28T16:16:27.915Z,34.60
2022-11-28T16:19:27.259Z,32.40
2022-11-28T16:22:22.987Z,35.63
2022-11-28T16:25:23.381Z,31.00
2022-11-28T16:28:36.000Z,32.50
2022-11-28T16:31:28.418Z,35.40
2022-11-28T16:34:49.959Z,33.63
2022-11-28T16:37:38.236Z,33.87
2022-11-28T16:40:28.335Z,35.60
2022-11-28T16:43:25.094Z,31.30
2022-11-28T16:46:22.333Z,34.30
2022-11-28T16:49:34.115Z,36.30
2022-11-28T16:52:48.018Z,33.43
2022-11-28T16:55:46.353Z,34.53
2022-11-28T16:58:37.292Z,27.77
2022-11-28T17:01:29.429Z,36.77
2022-11-28T17:04:27.116Z,35.53
2022-11-28T17:07:17.613Z,35.67
2022-11-28T17:10:07.457Z,34.00
2022-11-28T17:13:00.344Z,37.00
2022-11-28T17:15:52.419Z,39.37
2022-11-28T17:18:41.500Z,37.70
2022-11-28T17:21:39.337Z,37.60
2022-11-28T17:24:36.684Z,39.53
2022-11-28T17:27:25.259Z,36.20
2022-11-28T17:30:20.294Z,38.80
2022-11-28T17:33:18.072Z,38.20
2022-11-28T17:36:08.926Z,38.50
2022-11-28T17:39:05.410Z,36.10
2022-11-28T17:41:57.413Z,40.00
2022-11-28T17:44:49.849Z,40.03
2022-11-28T17:47:42.435Z,37.23
2022-11-28T17:50:33.843Z,38.60
2022-11-28T17:53:26.831Z,38.60
2022-11-28T17:56:44.340Z,38.50
2022-11-28T17:59:43.371Z,38.60
2022-11-28T18:02:38.011Z,41.50
2022-11-28T18:05:35.580Z,40.70
2022-11-28T18:08:34.277Z,40.17
2022-11-28T18:11:28.674Z,35.67
2022-11-28T18:14:39.599Z,41.77
2022-11-28T18:17:35.153Z,41.03
2022-11-28T18:20:37.797Z,40.90
2022-11-28T18:23:28.843Z,40.40
2022-11-28T18:26:31.970Z,41.57
2022-11-28T18:29:39.397Z,41.80
2022-11-28T18:32:36.856Z,41.80
2022-11-28T18:35:28.367Z,43.40
2022-11-28T18:38:19.507Z,41.10
2022-11-28T18:41:17.689Z,42.93
2022-11-28T18:44:14.535Z,39.63
2022-11-28T18:47:09.730Z,43.17
2022-11-28T18:50:02.925Z,40.13
2022-11-28T18:52:57.944Z,43.40
2022-11-28T18:55:49.238Z,44.03
2022-11-28T18:58:43.852Z,38.83
2022-11-28T19:01:41.257Z,40.57
2022-11-28T19:04:34.325Z,41.73
2022-11-28T19:07:29.832Z,41.67
2022-11-28T19:10:20.644Z,43.23
2022-11-28T19:13:11.567Z,38.63
2022-11-28T19:16:07.572Z,44.33
2022-11-28T19:19:01.149Z,42.50
2022-11-28T19:21:55.354Z,40.83
2022-11-28T19:24:45.252Z,38.63
2022-11-28T19:27:41.276Z,44.23
2022-11-28T19:30:30.255Z,43.53
2022-11-28T19:33:21.213Z,49.50
2022-11-28T19:36:13.484Z,42.80
2022-11-28T19:39:03.856Z,41.27
2022-11-28T19:41:55.081Z,40.80
2022-11-28T19:44:43.961Z,41.00
2022-11-28T19:47:36.506Z,41.20
2022-11-28T19:50:25.751Z,41.73
2022-11-28T19:53:15.831Z,41.70
2022-11-28T19:56:14.873Z,38.10
2022-11-28T19:59:08.147Z,42.80
2022-11-28T20:02:02.368Z,41.90
2022-11-28T20:04:51.260Z,40.43
2022-11-28T20:08:11.873Z,39.83
2022-11-28T20:19:55.286Z,41.30
2022-11-28T20:23:34.854Z,37.57
2022-11-28T20:30:53.318Z,38.13
2022-11-28T20:58:27.250Z,38.37
2022-11-28T21:05:40.698Z,40.70
2022-11-28T21:08:34.417Z,37.43
2022-11-28T21:15:01.403Z,42.50
2022-11-28T21:17:50.250Z,40.73
2022-11-28T21:20:44.374Z,43.50
2022-11-28T21:23:36.958Z,40.20
2022-11-28T21:26:40.869Z,40.83
2022-11-28T21:29:31.142Z,40.60
2022-11-28T21:32:23.227Z,42.23
2022-11-28T22:46:20.602Z,42.60
2022-11-28T22:49:38.665Z,43.63
